Time;durP1;ratioP1;P1;durP2;ratioP2;P2;SDS_P1;SDS_P2;PMS_P1;PMS_P2;Temp;Humidity;BMP_temperature;BMP_pressure;BME280_temperature;BME280_humidity;BME280_pressure;Samples;Min_cycle;Max_cycle;Signal;HPM_P1;HPM_P2
2022/02/03 00:01:58;;;;;;;78.90;52.97;;;;;;;7.39;100.00;101956.53;5089509;28;20032;-73
2022/02/03 00:04:24;;;;;;;79.60;54.35;;;;;;;7.38;100.00;101960.00;5089981;28;20085;-74
2022/02/03 00:06:56;;;;;;;75.50;51.47;;;;;;;7.39;100.00;101956.53;5091492;28;20024;-73
2022/02/03 00:25:33;;;;;;;71.35;48.47;;;;;;;7.41;100.00;101953.13;5090735;28;20040;-73
2022/02/03 00:28:13;;;;;;;79.75;52.88;;;;;;;7.43;100.00;101948.78;5091111;28;20040;-73
2022/02/03 00:38:44;;;;;;;76.55;50.53;;;;;;;7.45;100.00;101925.16;5089327;28;20134;-74
2022/02/03 00:49:36;;;;;;;76.53;50.03;;;;;;;7.45;100.00;101909.38;5048460;28;20181;-73
2022/02/03 00:52:02;;;;;;;;;;;;;;;7.58;100.00;101901.03;5048999;28;20033;-73
2022/02/03 00:54:31;;;;;;;66.32;46.20;;;;;;;7.48;100.00;101899.88;5048557;28;19935;-73
2022/02/03 00:57:06;;;;;;;69.93;48.22;;;;;;;7.44;100.00;101908.50;5048445;28;20122;-73
2022/02/03 00:59:43;;;;;;;69.82;47.40;;;;;;;7.44;100.00;101899.69;5047518;28;20120;-73
2022/02/03 01:02:12;;;;;;;69.45;45.97;;;;;;;7.45;100.00;101898.84;5048137;28;20502;-73
2022/02/03 01:04:40;;;;;;;68.90;46.33;;;;;;;7.47;100.00;101895.44;5037117;28;20044;-73
2022/02/03 01:07:18;;;;;;;67.38;47.25;;;;;;;7.46;100.00;101896.28;5052761;28;20384;-74
2022/02/03 01:10:00;;;;;;;67.22;46.28;;;;;;;7.44;100.00;101903.22;5050274;28;20443;-74
2022/02/03 01:12:47;;;;;;;68.45;45.40;;;;;;;7.43;100.00;101905.81;5051408;28;20061;-73
2022/02/03 01:20:59;;;;;;;69.00;46.90;;;;;;;7.45;100.00;101898.84;5050111;28;20072;-73
2022/02/03 01:34:14;;;;;;;67.47;47.47;;;;;;;7.41;100.00;101902.22;5093457;28;20395;-73
2022/02/03 01:45:04;;;;;;;65.18;46.20;;;;;;;7.37;100.00;101892.41;5092588;28;20050;-72
2022/02/03 01:52:35;;;;;;;65.30;44.58;;;;;;;7.32;100.00;101889.63;5093064;28;20122;-73
2022/02/03 01:55:05;;;;;;;69.75;46.38;;;;;;;7.31;100.00;101887.84;5094187;28;20051;-74
2022/02/03 01:57:51;;;;;;;63.35;42.92;;;;;;;7.30;100.00;101880.81;5092881;28;20049;-73
2022/02/03 02:00:17;;;;;;;63.42;42.95;;;;;;;7.25;100.00;101875.41;5090999;28;20028;-73
2022/02/03 02:03:04;;;;;;;63.00;43.10;;;;;;;7.28;100.00;101871.97;5093267;28;20031;-72
2022/02/03 02:05:39;;;;;;;59.58;40.05;;;;;;;7.31;100.00;101870.34;5092870;28;20061;-74
2022/02/03 02:08:18;;;;;;;58.63;41.35;;;;;;;7.30;100.00;101872.94;5093180;28;20059;-74
2022/02/03 02:11:10;;;;;;;58.45;40.15;;;;;;;7.28;100.00;101870.25;5091745;28;20059;-73
2022/02/03 02:16:39;;;;;;;50.42;34.70;;;;;;;7.26;100.00;101863.13;5093004;28;20043;-73
2022/02/03 02:19:59;;;;;;;53.10;35.92;;;;;;;7.28;100.00;101854.47;5091986;28;20054;-73
2022/02/03 02:39:23;;;;;;;37.45;24.15;;;;;;;7.20;100.00;101845.41;5090544;28;20042;-73
2022/02/03 02:44:35;;;;;;;36.33;22.08;;;;;;;7.17;100.00;101832.16;5091896;28;20074;-73
2022/02/03 02:47:08;;;;;;;33.50;20.75;;;;;;;7.17;100.00;101837.41;5090513;28;20039;-73
2022/02/03 02:49:57;;;;;;;35.38;21.42;;;;;;;7.15;100.00;101826.84;5091663;28;20089;-73
2022/02/03 02:52:33;;;;;;;33.50;19.90;;;;;;;7.15;100.00;101833.84;5092525;28;20043;-73
2022/02/03 02:57:51;;;;;;;34.08;19.73;;;;;;;7.12;100.00;101837.25;5092619;28;20111;-73
2022/02/03 03:03:33;;;;;;;31.63;18.25;;;;;;;7.20;100.00;101813.84;5092674;28;20036;-73
2022/02/03 03:31:36;;;;;;;26.83;12.25;;;;;;;7.08;100.00;101763.50;5092368;28;20069;-73
2022/02/03 03:34:04;;;;;;;25.15;11.88;;;;;;;7.06;100.00;101760.81;5091749;28;20082;-73
2022/02/03 03:36:32;;;;;;;25.15;11.32;;;;;;;7.06;100.00;101747.66;5090338;28;20497;-73
2022/02/03 03:39:01;;;;;;;25.42;10.93;;;;;;;7.08;100.00;101750.34;5090987;28;20024;-73
2022/02/03 03:41:33;;;;;;;26.23;11.35;;;;;;;7.02;100.00;101745.78;5091473;28;20035;-73
2022/02/03 03:44:03;;;;;;;27.27;11.82;;;;;;;7.04;100.00;101748.44;5091767;28;20034;-73
2022/02/03 03:46:34;;;;;;;25.45;11.93;;;;;;;7.06;100.00;101747.66;5091845;28;20032;-73
2022/02/03 03:49:05;;;;;;;25.20;11.55;;;;;;;7.01;100.00;101738.72;5091119;28;20123;-73
2022/02/03 03:51:47;;;;;;;25.58;12.07;;;;;;;7.04;100.00;101740.56;5090971;28;20024;-73
2022/02/03 03:54:27;;;;;;;25.15;11.65;;;;;;;6.95;100.00;101752.53;5088829;28;20027;-73
2022/02/03 03:57:20;;;;;;;25.88;12.00;;;;;;;6.95;100.00;101747.28;5091626;28;20028;-73
2022/02/03 04:00:16;;;;;;;;;;;;;;;6.95;100.00;101744.66;5089785;28;20020;-73
2022/02/03 05:07:10;;;;;;;19.77;5.55;;;;;;;6.66;100.00;101690.25;5012883;28;20030;-73
2022/02/03 05:13:20;;;;;;;20.05;5.45;;;;;;;6.65;100.00;101685.81;5017656;28;20041;-73
2022/02/03 05:18:47;;;;;;;;;;;;;;;6.79;100.00;101674.03;5015973;28;20046;-73
2022/02/03 05:22:23;;;;;;;19.63;5.03;;;;;;;6.67;100.00;101668.34;5012344;28;19942;-73
2022/02/03 06:22:11;;;;;;;25.63;11.02;;;;;;;6.63;100.00;101573.66;5051000;28;20506;-73
2022/02/03 06:24:51;;;;;;;25.45;11.32;;;;;;;6.63;100.00;101573.66;5050539;28;20062;-73
2022/02/03 06:27:38;;;;;;;26.38;11.30;;;;;;;6.63;100.00;101591.19;5050364;28;20060;-74
2022/02/03 06:30:05;;;;;;;25.48;11.25;;;;;;;6.67;100.00;101584.28;5050286;28;20068;-74
2022/02/03 06:32:30;;;;;;;24.15;10.20;;;;;;;6.71;100.00;101591.41;5050619;28;20408;-73
2022/02/03 06:34:56;;;;;;;25.25;11.32;;;;;;;6.61;100.00;101591.13;5050548;28;20064;-74
2022/02/03 06:37:22;;;;;;;24.08;10.82;;;;;;;6.60;100.00;101594.59;5050392;28;20063;-73
2022/02/03 06:39:48;;;;;;;23.67;10.70;;;;;;;6.62;100.00;101581.50;5049584;28;20064;-74
2022/02/03 06:42:14;;;;;;;24.70;10.95;;;;;;;6.63;100.00;101586.81;5050464;28;20033;-78
2022/02/03 06:44:44;;;;;;;24.02;9.88;;;;;;;6.57;100.00;101557.72;5050499;28;20029;-74
2022/02/03 06:47:20;;;;;;;23.48;10.18;;;;;;;6.63;100.00;101557.91;5093001;28;20055;-74
2022/02/03 06:52:30;;;;;;;24.17;10.00;;;;;;;6.61;100.00;101549.09;5091405;28;20028;-76
2022/02/03 06:57:55;;;;;;;21.65;9.10;;;;;;;6.67;100.00;101536.97;5092822;28;20040;-75
2022/02/03 07:00:23;;;;;;;22.83;9.73;;;;;;;6.66;100.00;101545.72;5090578;28;20054;-71
2022/02/03 07:02:51;;;;;;;23.33;10.45;;;;;;;6.68;100.00;101544.03;5092404;28;20265;-74
2022/02/03 07:05:17;;;;;;;23.63;10.52;;;;;;;6.61;100.00;101549.09;5092353;28;20028;-73
2022/02/03 07:07:42;;;;;;;24.60;10.60;;;;;;;6.63;100.00;101559.66;5092049;28;20435;-74
2022/02/03 07:10:10;;;;;;;24.45;10.75;;;;;;;6.80;100.00;101562.78;5092672;28;20028;-75
2022/02/03 07:12:35;;;;;;;23.95;10.48;;;;;;;6.67;100.00;101560.63;5092054;28;20032;-74
2022/02/03 07:15:03;;;;;;;25.45;11.95;;;;;;;6.63;100.00;101578.91;5092040;28;20451;-74
2022/02/03 07:17:28;;;;;;;26.40;12.00;;;;;;;6.63;100.00;101557.91;5091796;28;20047;-75
2022/02/03 07:20:00;;;;;;;25.50;12.50;;;;;;;6.61;100.00;101562.22;5091836;28;20032;-75
2022/02/03 07:22:25;;;;;;;26.13;11.95;;;;;;;6.63;100.00;101568.41;5089610;28;20111;-75
2022/02/03 07:24:52;;;;;;;25.85;11.90;;;;;;;6.65;100.00;101555.31;5092028;28;20372;-73
2022/02/03 07:27:18;;;;;;;25.63;12.38;;;;;;;6.58;100.00;101555.97;5091488;28;20467;-73
2022/02/03 07:29:43;;;;;;;26.65;13.10;;;;;;;6.52;100.00;101554.03;5091345;28;20137;-74
2022/02/03 07:32:09;;;;;;;25.83;12.23;;;;;;;6.59;100.00;101528.84;5092146;28;20588;-74
2022/02/03 07:34:34;;;;;;;25.17;12.82;;;;;;;6.60;100.00;101536.78;5090291;28;20028;-76
2022/02/03 07:37:00;;;;;;;25.92;12.65;;;;;;;6.64;100.00;101529.91;5091792;28;20071;-75
2022/02/03 07:39:25;;;;;;;25.80;12.13;;;;;;;6.62;100.00;101528.94;5089148;28;20115;-75
2022/02/03 07:41:51;;;;;;;25.27;11.90;;;;;;;6.59;100.00;101513.97;5092060;28;20046;-75
2022/02/03 07:44:16;;;;;;;26.00;11.80;;;;;;;6.62;100.00;101519.31;5092009;28;20463;-74
2022/02/03 07:46:42;;;;;;;26.88;11.98;;;;;;;6.61;100.00;101498.25;5091359;28;20514;-78
2022/02/03 07:49:07;;;;;;;24.85;11.95;;;;;;;6.62;100.00;101505.31;5091398;28;20470;-76
2022/02/03 07:51:33;;;;;;;25.35;11.93;;;;;;;6.59;100.00;101510.47;5091419;28;20027;-77
2022/02/03 07:53:58;;;;;;;25.27;12.32;;;;;;;6.56;100.00;101513.88;5090885;28;20063;-77
2022/02/03 07:56:24;;;;;;;25.15;11.40;;;;;;;6.56;100.00;101506.00;5091433;28;20024;-75
2022/02/03 07:58:49;;;;;;;24.90;11.68;;;;;;;6.62;100.00;101497.44;5091203;28;20024;-74
2022/02/03 08:01:14;;;;;;;24.08;10.52;;;;;;;6.62;100.00;101493.06;5089496;28;20475;-74
2022/02/03 08:03:43;;;;;;;25.23;11.20;;;;;;;6.63;100.00;101512.34;5090702;28;20088;-73
2022/02/03 08:06:13;;;;;;;24.58;10.90;;;;;;;6.53;100.00;101512.91;5091849;28;20035;-74
2022/02/03 08:08:44;;;;;;;25.00;10.43;;;;;;;6.57;100.00;101515.69;5091021;28;20482;-73
2022/02/03 08:11:14;;;;;;;23.70;9.82;;;;;;;6.56;100.00;101528.75;5091611;28;20016;-74
2022/02/03 08:13:51;;;;;;;24.08;10.43;;;;;;;6.56;100.00;101511.25;5089944;28;20107;-74
2022/02/03 08:16:23;;;;;;;22.38;9.25;;;;;;;6.54;100.00;101496.28;5091033;28;20034;-73
2022/02/03 08:18:54;;;;;;;23.73;10.40;;;;;;;6.49;100.00;101497.91;5090981;28;20028;-74
2022/02/03 08:21:21;;;;;;;24.33;10.18;;;;;;;6.57;100.00;101512.16;5091216;28;20478;-73
2022/02/03 08:24:03;;;;;;;24.15;10.60;;;;;;;6.51;100.00;101510.25;5091150;28;20035;-74
2022/02/03 08:30:19;;;;;;;23.85;10.48;;;;;;;6.61;100.00;101522.81;5089350;28;20261;-74
2022/02/03 08:32:10;;;;;;;24.42;10.38;;;;;;;6.59;100.00;101519.22;5090293;28;20127;-74
2022/02/03 08:34:45;;;;;;;23.45;10.15;;;;;;;6.63;100.00;101514.97;5090849;28;20399;-70
2022/02/03 08:37:11;;;;;;;25.90;10.48;;;;;;;6.54;100.00;101509.41;5089936;28;20108;-70
2022/02/03 08:39:50;;;;;;;26.25;10.25;;;;;;;6.60;100.00;101499.13;5090345;28;20070;-71
2022/02/03 08:42:15;;;;;;;25.92;10.35;;;;;;;6.56;100.00;101508.63;5090784;28;20070;-72
2022/02/03 08:44:41;;;;;;;23.05;10.52;;;;;;;6.54;100.00;101502.44;5091496;28;20016;-74
2022/02/03 08:47:06;;;;;;;23.30;9.60;;;;;;;6.53;100.00;101481.38;5090919;28;20047;-72
2022/02/03 08:49:33;;;;;;;25.00;9.80;;;;;;;6.59;100.00;101492.09;5090593;28;20051;-71
2022/02/03 08:52:05;;;;;;;23.70;9.25;;;;;;;6.60;100.00;101475.47;5090752;28;20104;-71
2022/02/03 08:54:34;;;;;;;23.75;9.50;;;;;;;6.63;100.00;101478.19;5090803;28;20479;-70
2022/02/03 08:57:08;;;;;;;22.48;9.63;;;;;;;6.57;100.00;101499.91;5087983;28;20020;-69
2022/02/03 09:38:04;;;;;;;23.20;9.20;;;;;;;6.54;100.00;101455.16;5092847;28;20092;-77
2022/02/03 09:54:19;;;;;;;26.38;9.40;;;;;;;6.67;100.00;101468.66;5093096;28;20030;-77
2022/02/03 09:59:49;;;;;;;23.65;8.68;;;;;;;6.71;100.00;101475.78;5091763;28;20106;-77
2022/02/03 10:02:21;;;;;;;25.73;9.20;;;;;;;6.64;100.00;101477.38;5093025;28;20239;-77
2022/02/03 10:07:51;;;;;;;23.15;8.88;;;;;;;6.73;100.00;101463.63;5031066;28;20034;-75
2022/02/03 10:10:16;;;;;;;22.52;8.60;;;;;;;6.75;100.00;101459.28;5030744;28;20030;-77
2022/02/03 10:12:43;;;;;;;23.08;8.85;;;;;;;6.78;100.00;101467.25;5027919;28;20048;-77
2022/02/03 10:15:11;;;;;;;23.73;8.70;;;;;;;6.77;100.00;101468.09;5031020;28;20021;-77
2022/02/03 10:17:44;;;;;;;22.70;8.60;;;;;;;6.84;100.00;101467.44;5027363;28;20180;-77
2022/02/03 10:20:14;;;;;;;22.48;8.50;;;;;;;6.92;100.00;101455.41;5030158;28;20040;-77
2022/02/03 10:22:48;;;;;;;25.08;8.35;;;;;;;6.95;100.00;101452.88;5027705;28;20153;-77
2022/02/03 10:25:20;;;;;;;25.77;8.68;;;;;;;6.96;100.00;101459.91;5028445;28;20029;-73
2022/02/03 10:28:00;;;;;;;23.98;8.52;;;;;;;7.03;100.00;101457.44;5029890;28;20069;-75
2022/02/03 10:30:33;;;;;;;24.38;8.82;;;;;;;7.02;100.00;101445.16;5027937;28;20401;-74
2022/02/03 10:32:58;;;;;;;23.10;8.63;;;;;;;7.07;100.00;101428.66;5027379;28;20499;-72
2022/02/03 10:35:33;;;;;;;23.25;8.35;;;;;;;7.06;100.00;101426.00;5030811;28;20052;-75
2022/02/03 10:38:37;;;;;;;24.35;8.77;;;;;;;7.10;100.00;101428.75;5026903;28;20392;-74
2022/02/03 10:49:15;;;;;;;23.53;9.27;;;;;;;7.08;100.00;101429.56;5092757;28;20043;-73
2022/02/03 11:08:12;;;;;;;22.02;8.30;;;;;;;7.10;100.00;101407.72;5030359;28;20504;-73
2022/02/03 11:10:41;;;;;;;24.38;8.25;;;;;;;7.10;100.00;101397.19;5029756;28;20038;-73
2022/02/03 11:13:08;;;;;;;23.38;8.55;;;;;;;7.07;100.00;101396.22;5030123;28;20060;-74
2022/02/03 11:15:34;;;;;;;23.83;8.50;;;;;;;7.07;100.00;101399.75;5029807;28;20041;-74
2022/02/03 11:18:03;;;;;;;23.80;8.63;;;;;;;7.11;100.00;101392.84;5028867;28;20114;-73
2022/02/03 11:20:30;;;;;;;24.17;8.80;;;;;;;7.03;100.00;101389.97;5029557;28;20053;-73
2022/02/03 11:28:23;;;;;;;23.70;8.30;;;;;;;7.07;100.00;101386.59;5029573;28;20049;-73
2022/02/03 11:31:21;;;;;;;23.27;8.07;;;;;;;7.15;100.00;101376.31;5028249;28;20225;-74
2022/02/03 12:26:16;;;;;;;23.05;9.68;;;;;;;7.36;100.00;101304.06;4987172;28;20035;-74
2022/02/03 12:39:09;;;;;;;24.73;10.20;;;;;;;7.42;100.00;101285.81;4989514;28;20045;-75
2022/02/03 12:41:41;;;;;;;24.05;9.45;;;;;;;7.42;100.00;101288.44;4985886;28;20030;-74
2022/02/03 12:44:18;;;;;;;24.73;9.93;;;;;;;7.49;100.00;101282.47;5077816;28;20043;-76
2022/02/03 12:46:43;;;;;;;24.60;9.30;;;;;;;7.42;100.00;101291.94;5091449;28;20024;-76
2022/02/03 12:49:09;;;;;;;25.08;9.75;;;;;;;7.30;100.00;101287.28;5090083;28;20027;-75
2022/02/03 12:51:34;;;;;;;23.70;9.40;;;;;;;7.23;100.00;101297.63;5089567;28;20044;-76
2022/02/03 12:54:13;;;;;;;23.45;9.45;;;;;;;7.05;100.00;101298.00;5090711;28;20024;-74
2022/02/03 12:56:39;;;;;;;24.75;10.48;;;;;;;6.90;100.00;101291.53;5090109;28;20067;-75
2022/02/03 12:59:08;;;;;;;23.98;9.73;;;;;;;7.00;100.00;101287.38;5090641;28;20103;-74
2022/02/03 13:01:36;;;;;;;25.38;10.45;;;;;;;6.92;100.00;101276.69;5094619;28;20043;-74
2022/02/03 13:04:09;;;;;;;25.50;10.20;;;;;;;6.94;100.00;101274.97;5094246;28;20089;-74
2022/02/03 13:06:39;;;;;;;24.90;9.85;;;;;;;6.86;100.00;101272.97;5093265;28;20016;-74
2022/02/03 13:09:08;;;;;;;25.13;10.43;;;;;;;6.93;100.00;101267.03;5092202;28;20028;-74
2022/02/03 13:11:48;;;;;;;24.05;9.60;;;;;;;6.93;100.00;101252.19;5093334;28;20130;-70
2022/02/03 13:14:35;;;;;;;24.83;9.52;;;;;;;6.92;100.00;101258.28;5116630;27;20020;-75
2022/02/03 13:17:15;;;;;;;24.25;9.68;;;;;;;6.74;100.00;101256.06;5092404;28;20043;-74
2022/02/03 13:19:58;;;;;;;26.98;10.48;;;;;;;6.51;100.00;101255.44;5092000;28;20036;-71
2022/02/03 13:22:49;;;;;;;24.25;9.80;;;;;;;6.38;100.00;101250.69;5093535;28;21050;-71
2022/02/03 13:30:42;;;;;;;26.23;10.32;;;;;;;6.54;100.00;101252.91;5093381;28;20317;-71
2022/02/03 13:33:10;;;;;;;25.48;10.40;;;;;;;6.55;100.00;101253.78;5092013;28;20031;-72
2022/02/03 13:38:56;;;;;;;25.73;11.02;;;;;;;6.72;100.00;101252.50;5093074;28;20035;-71
2022/02/03 13:41:27;;;;;;;24.70;10.10;;;;;;;6.57;100.00;101246.84;5093010;28;20443;-70
2022/02/03 13:43:52;;;;;;;26.77;10.02;;;;;;;6.53;100.00;101244.97;5093403;28;20105;-72
2022/02/03 13:46:44;;;;;;;26.52;10.45;;;;;;;6.56;100.00;101252.94;5093935;28;20121;-70
2022/02/03 13:49:15;;;;;;;25.48;10.27;;;;;;;6.61;100.00;101254.84;5089593;28;20097;-71
2022/02/03 13:51:42;;;;;;;27.25;10.82;;;;;;;6.61;100.00;101248.69;5091367;28;20016;-71
2022/02/03 13:54:33;;;;;;;26.42;10.68;;;;;;;6.71;100.00;101244.56;5093198;28;20470;-72
2022/02/03 14:21:04;;;;;;;28.38;11.57;;;;;;;6.33;100.00;101219.03;5093147;28;20044;-72
2022/02/03 14:26:52;;;;;;;26.73;11.10;;;;;;;6.07;100.00;101213.06;5092759;28;20099;-73
2022/02/03 14:29:00;;;;;;;28.35;12.55;;;;;;;5.75;100.00;101218.22;5093144;28;20490;-73
2022/02/03 14:31:26;;;;;;;29.98;14.15;;;;;;;5.68;100.00;101213.63;5091926;28;20059;-73
2022/02/03 14:33:52;;;;;;;27.88;13.77;;;;;;;5.68;100.00;101218.88;5093027;28;20398;-72
2022/02/03 14:36:22;;;;;;;29.38;14.85;;;;;;;5.61;100.00;101225.69;5092691;28;20016;-72
2022/02/03 14:39:04;;;;;;;28.88;13.35;;;;;;;5.59;100.00;101220.38;5092740;28;20059;-72
2022/02/03 14:41:35;;;;;;;29.10;13.85;;;;;;;5.55;100.00;101218.50;5092659;28;20021;-73
2022/02/03 14:44:01;;;;;;;30.73;14.50;;;;;;;5.52;100.00;101210.56;5090215;28;20028;-72
2022/02/03 14:46:27;;;;;;;29.95;15.45;;;;;;;5.55;100.00;101208.03;5092673;28;20030;-72
2022/02/03 14:48:52;;;;;;;30.67;15.85;;;;;;;5.57;100.00;101193.19;5092451;28;20054;-74
2022/02/03 14:51:24;;;;;;;31.75;17.60;;;;;;;5.56;100.00;101182.66;5092189;28;20028;-74
2022/02/03 14:58:59;;;;;;;27.77;13.73;;;;;;;5.54;100.00;101179.13;5092259;28;20123;-73
2022/02/03 15:01:25;;;;;;;28.45;13.45;;;;;;;5.56;100.00;101178.34;5092261;28;20114;-74
2022/02/03 15:03:54;;;;;;;30.45;14.25;;;;;;;5.64;100.00;101172.44;5092582;28;20028;-75
2022/02/03 15:06:23;;;;;;;29.83;14.00;;;;;;;5.66;100.00;101173.34;5091092;28;20386;-81
2022/02/03 15:14:12;;;;;;;27.48;13.43;;;;;;;5.76;100.00;101162.28;5069873;28;20046;-73
2022/02/03 15:16:37;;;;;;;28.33;13.70;;;;;;;5.74;100.00;101170.13;5069355;28;20048;-74
2022/02/03 15:19:03;;;;;;;29.58;13.07;;;;;;;5.72;100.00;101160.41;5068935;28;20044;-74
2022/02/03 15:21:29;;;;;;;29.67;13.68;;;;;;;5.68;100.00;101163.78;5069687;28;20068;-72
2022/02/03 15:23:54;;;;;;;29.35;14.50;;;;;;;5.67;100.00;101154.16;5068656;28;20094;-76
2022/02/03 15:26:21;;;;;;;27.25;13.60;;;;;;;5.74;100.00;101161.38;5069085;28;20415;-75
2022/02/03 15:28:47;;;;;;;26.15;13.82;;;;;;;5.69;100.00;101152.44;5068793;28;20041;-71
2022/02/03 15:31:12;;;;;;;27.75;13.02;;;;;;;5.64;100.00;101159.31;5068081;28;20427;-73
2022/02/03 15:33:38;;;;;;;28.60;14.07;;;;;;;5.64;100.00;101151.44;5069474;28;20044;-73
2022/02/03 15:36:08;;;;;;;26.98;13.73;;;;;;;5.62;100.00;101145.25;5069365;28;20044;-73
2022/02/03 15:38:38;;;;;;;27.00;13.05;;;;;;;5.67;100.00;101149.78;5068814;28;20112;-74
2022/02/03 15:41:07;;;;;;;28.38;13.55;;;;;;;5.65;100.00;101142.72;5052931;28;20121;-73
2022/02/03 15:43:40;;;;;;;27.45;14.13;;;;;;;5.65;100.00;101130.50;5068106;28;20492;-73
2022/02/03 15:46:06;;;;;;;27.60;13.73;;;;;;;5.71;100.00;101135.91;5067757;28;20024;-73
2022/02/03 15:49:20;;;;;;;26.77;13.70;;;;;;;5.70;100.00;101133.25;5076052;28;20038;-74
2022/02/03 15:56:14;;;;;;;26.42;13.63;;;;;;;5.74;100.00;101140.38;5083451;28;20118;-72
2022/02/03 16:18:02;;;;;;;28.52;14.15;;;;;;;5.78;100.00;101138.72;5088272;28;20054;-73
2022/02/03 16:20:39;;;;;;;28.52;14.70;;;;;;;5.79;100.00;101146.63;5090207;28;20040;-74
2022/02/03 16:52:46;;;;;;;31.40;16.92;;;;;;;5.41;100.00;101138.53;5095192;28;20120;-73
2022/02/03 16:55:13;;;;;;;31.95;17.50;;;;;;;5.37;100.00;101150.66;5095004;28;20058;-74
2022/02/03 16:57:39;;;;;;;30.67;17.23;;;;;;;5.38;100.00;101147.19;5094451;28;20032;-73
2022/02/03 17:00:10;;;;;;;30.85;17.48;;;;;;;5.41;100.00;101151.63;5094607;28;20034;-73
2022/02/03 17:02:37;;;;;;;35.13;19.23;;;;;;;5.33;100.00;101147.88;5094693;28;20020;-74
2022/02/03 17:05:03;;;;;;;35.13;18.48;;;;;;;5.33;100.00;101145.25;5095148;28;20068;-73
2022/02/03 17:07:28;;;;;;;32.83;18.00;;;;;;;5.32;100.00;101138.25;5094525;28;20043;-74
2022/02/03 17:09:55;;;;;;;32.85;18.60;;;;;;;5.34;100.00;101133.94;5094284;28;20020;-73
2022/02/03 17:12:21;;;;;;;33.45;19.42;;;;;;;5.33;100.00;101135.69;5094990;28;20031;-73
2022/02/03 17:14:46;;;;;;;33.03;20.25;;;;;;;5.35;100.00;101127.88;5094793;28;20420;-73
2022/02/03 17:17:13;;;;;;;35.97;20.73;;;;;;;5.31;100.00;101139.97;5094710;28;20048;-73
2022/02/03 17:19:39;;;;;;;34.58;20.65;;;;;;;5.30;100.00;101140.84;5091097;28;20040;-73
2022/02/03 17:22:06;;;;;;;32.72;19.10;;;;;;;5.37;100.00;101139.28;5093852;28;20028;-73
2022/02/03 17:24:34;;;;;;;35.03;19.70;;;;;;;5.30;100.00;101146.09;5093829;28;20077;-73
2022/02/03 17:27:08;;;;;;;34.38;20.50;;;;;;;5.31;100.00;101139.09;5094470;28;20016;-73
2022/02/03 17:29:49;;;;;;;32.33;18.80;;;;;;;5.37;100.00;101136.66;5093027;28;20024;-74
2022/02/03 17:52:18;;;;;;;34.55;21.00;;;;;;;5.33;100.00;101145.25;5091762;28;20070;-73
2022/02/03 18:10:27;;;;;;;35.53;21.92;;;;;;;5.57;100.00;101153.88;5092811;28;20047;-73
2022/02/03 18:27:19;;;;;;;38.33;24.95;;;;;;;5.57;100.00;101164.34;5092761;28;20066;-74
2022/02/03 18:35:07;;;;;;;39.60;25.52;;;;;;;5.61;100.00;101154.84;5092368;28;20035;-73
2022/02/03 18:37:51;;;;;;;38.80;26.00;;;;;;;5.58;100.00;101154.78;5092724;28;20069;-74
2022/02/03 18:51:24;;;;;;;40.13;26.50;;;;;;;5.65;100.00;101153.19;5033265;28;20056;-74
2022/02/03 18:56:39;;;;;;;41.85;27.17;;;;;;;5.63;100.00;101144.41;5033304;28;20025;-74
2022/02/03 20:08:49;;;;;;;41.20;28.65;;;;;;;5.84;100.00;101120.50;5049142;28;20036;-76
2022/02/03 20:11:17;;;;;;;41.60;28.08;;;;;;;5.83;100.00;101127.50;5048097;28;20112;-76
2022/02/03 20:13:43;;;;;;;42.78;29.42;;;;;;;5.86;100.00;101124.97;5048725;28;20549;-76
2022/02/03 20:16:08;;;;;;;41.28;27.52;;;;;;;5.86;100.00;101129.34;5048868;28;20020;-75
2022/02/03 20:18:34;;;;;;;41.97;27.98;;;;;;;5.84;100.00;101126.66;5048757;28;20562;-76
2022/02/03 20:20:59;;;;;;;42.95;28.67;;;;;;;5.79;100.00;101130.88;5048515;28;20126;-76
2022/02/03 20:23:25;;;;;;;40.58;27.02;;;;;;;5.83;100.00;101132.75;5048268;28;20079;-76
2022/02/03 20:25:57;;;;;;;41.22;28.20;;;;;;;5.83;100.00;101130.13;5048655;28;20025;-74
2022/02/03 20:28:27;;;;;;;43.20;28.27;;;;;;;5.85;100.00;101125.81;5048476;28;20036;-75
2022/02/03 20:30:54;;;;;;;44.45;30.23;;;;;;;5.79;100.00;101128.25;5048526;28;20033;-74
2022/02/03 20:33:20;;;;;;;43.15;28.77;;;;;;;5.81;100.00;101125.69;5048274;28;20435;-73
2022/02/03 20:35:45;;;;;;;41.67;27.10;;;;;;;5.81;100.00;101125.69;5048874;28;20057;-73
2022/02/03 20:38:11;;;;;;;43.35;29.27;;;;;;;5.80;100.00;101127.44;5048798;28;20431;-72
2022/02/03 20:40:37;;;;;;;43.40;28.85;;;;;;;5.80;100.00;101124.81;5072823;28;20048;-73
2022/02/03 20:43:03;;;;;;;41.58;27.95;;;;;;;5.87;100.00;101128.50;5091039;28;20024;-73
2022/02/03 20:45:28;;;;;;;41.72;27.77;;;;;;;5.84;100.00;101123.13;5090390;28;20021;-72
2022/02/03 20:47:53;;;;;;;42.20;28.60;;;;;;;5.86;100.00;101124.97;5091147;28;20027;-72
2022/02/03 20:50:20;;;;;;;40.38;26.45;;;;;;;5.88;100.00;101128.53;5091012;28;20478;-72
2022/02/03 20:52:49;;;;;;;40.05;27.05;;;;;;;5.89;100.00;101132.91;5091076;28;20470;-72
2022/02/03 20:55:16;;;;;;;42.33;27.75;;;;;;;5.85;100.00;101131.06;5090499;28;20024;-73
2022/02/03 20:57:41;;;;;;;44.15;27.70;;;;;;;5.84;100.00;101115.25;5090413;28;20029;-72
2022/02/03 21:02:47;;;;;;;44.08;28.95;;;;;;;5.85;100.00;101112.69;5091004;28;20044;-73
2022/02/03 21:05:13;;;;;;;42.72;28.67;;;;;;;5.86;100.00;101121.47;5090862;28;20024;-72
2022/02/03 21:07:41;;;;;;;44.35;29.77;;;;;;;5.88;100.00;101117.13;5090427;28;20749;-73
2022/02/03 21:10:10;;;;;;;43.83;29.42;;;;;;;5.87;100.00;101126.75;5088655;28;20020;-73
2022/02/03 21:12:36;;;;;;;44.97;30.52;;;;;;;5.89;100.00;101118.91;5091472;28;20425;-72
2022/02/03 21:15:05;;;;;;;46.22;31.48;;;;;;;5.87;100.00;101121.50;5090696;28;20106;-73
2022/02/03 21:17:31;;;;;;;44.58;29.67;;;;;;;5.85;100.00;101120.56;5088376;28;20070;-72
2022/02/03 21:20:06;;;;;;;46.10;31.80;;;;;;;5.85;100.00;101120.56;5090490;28;20082;-72
2022/02/03 21:22:31;;;;;;;45.63;29.83;;;;;;;5.88;100.00;101123.28;5091975;28;20030;-73
2022/02/03 21:25:03;;;;;;;45.58;29.98;;;;;;;5.92;100.00;101114.63;5094177;28;20035;-72
2022/02/03 21:27:31;;;;;;;44.95;30.17;;;;;;;5.87;100.00;101116.25;5093265;28;20020;-72
2022/02/03 21:29:57;;;;;;;46.28;31.15;;;;;;;5.85;100.00;101117.94;5093866;28;20074;-72
2022/02/03 21:32:22;;;;;;;46.20;31.80;;;;;;;5.86;100.00;101118.84;5094271;28;20028;-72
2022/02/03 21:34:52;;;;;;;46.25;31.27;;;;;;;5.87;100.00;101118.88;5094419;28;20024;-72
2022/02/03 21:37:17;;;;;;;46.05;31.23;;;;;;;5.85;100.00;101117.94;5091378;28;20099;-72
2022/02/03 21:39:43;;;;;;;47.50;32.35;;;;;;;5.84;100.00;101116.19;5093842;28;20028;-72
2022/02/03 21:42:09;;;;;;;45.97;31.20;;;;;;;5.88;100.00;101115.41;5094217;28;20436;-72
2022/02/03 21:44:34;;;;;;;45.72;29.67;;;;;;;5.86;100.00;101119.72;5093934;28;20032;-72
2022/02/03 21:47:00;;;;;;;49.88;32.33;;;;;;;5.86;100.00;101113.59;5092261;28;20066;-72
2022/02/03 21:49:25;;;;;;;46.50;30.88;;;;;;;5.88;100.00;101106.63;5093635;28;20066;-72
2022/02/03 21:51:54;;;;;;;44.60;29.45;;;;;;;5.89;100.00;101109.31;5093962;28;20463;-72
2022/02/03 21:54:20;;;;;;;44.83;29.40;;;;;;;5.87;100.00;101103.13;5089441;28;20119;-72
2022/02/03 21:56:48;;;;;;;43.85;30.23;;;;;;;5.82;100.00;101111.72;5091751;28;20024;-72
2022/02/03 21:59:15;;;;;;;47.78;33.50;;;;;;;5.80;100.00;101105.56;5092876;28;20028;-71
2022/02/03 22:01:41;;;;;;;46.00;30.67;;;;;;;5.81;100.00;101113.47;5092725;28;20031;-72
2022/02/03 22:04:10;;;;;;;44.70;29.63;;;;;;;5.82;100.00;101112.59;5093875;28;20028;-72
2022/02/03 22:06:36;;;;;;;43.53;29.13;;;;;;;5.80;100.00;101119.56;5092708;28;20421;-72
2022/02/03 22:09:02;;;;;;;44.85;31.10;;;;;;;5.78;100.00;101110.72;5093550;28;20016;-72
2022/02/03 22:11:29;;;;;;;42.97;29.33;;;;;;;5.80;100.00;101113.44;5091174;28;20111;-72
2022/02/03 22:13:54;;;;;;;45.47;29.88;;;;;;;5.81;100.00;101110.84;5093549;28;20494;-72